sensor_id;sensor_type;location;lat;lon;timestamp;P1;durP1;ratioP1;P2;durP2;ratioP2
18023;SDS011;9137;50.960;3.118;2022-08-21T00:00:02;4.80;;;1.80;;
18023;SDS011;9137;50.960;3.118;2022-08-21T00:02:31;3.85;;;1.80;;
18023;SDS011;9137;50.960;3.118;2022-08-21T00:04:59;2.40;;;1.50;;
18023;SDS011;9137;50.960;3.118;2022-08-21T00:07:27;2.92;;;1.42;;
18023;SDS011;9137;50.960;3.118;2022-08-21T00:09:54;4.93;;;1.80;;
18023;SDS011;9137;50.960;3.118;2022-08-21T00:12:21;2.40;;;1.40;;
18023;SDS011;9137;50.960;3.118;2022-08-21T00:14:49;5.05;;;1.67;;
18023;SDS011;9137;50.960;3.118;2022-08-21T00:17:16;4.75;;;1.80;;
18023;SDS011;9137;50.960;3.118;2022-08-21T00:19:43;6.25;;;1.75;;
18023;SDS011;9137;50.960;3.118;2022-08-21T00:22:11;3.40;;;1.75;;
18023;SDS011;9137;50.960;3.118;2022-08-21T00:24:38;3.08;;;1.60;;
18023;SDS011;9137;50.960;3.118;2022-08-21T00:27:05;4.55;;;2.00;;
18023;SDS011;9137;50.960;3.118;2022-08-21T00:29:32;3.97;;;1.80;;
18023;SDS011;9137;50.960;3.118;2022-08-21T00:31:59;4.75;;;1.70;;
18023;SDS011;9137;50.960;3.118;2022-08-21T00:34:26;3.65;;;1.27;;
18023;SDS011;9137;50.960;3.118;2022-08-21T00:36:53;4.77;;;1.90;;
18023;SDS011;9137;50.960;3.118;2022-08-21T00:39:21;5.25;;;1.92;;
18023;SDS011;9137;50.960;3.118;2022-08-21T00:41:48;5.45;;;1.67;;
18023;SDS011;9137;50.960;3.118;2022-08-21T00:44:15;5.03;;;1.80;;
18023;SDS011;9137;50.960;3.118;2022-08-21T00:46:42;3.85;;;2.17;;
18023;SDS011;9137;50.960;3.118;2022-08-21T00:49:10;4.88;;;2.25;;
18023;SDS011;9137;50.960;3.118;2022-08-21T00:51:39;3.25;;;1.70;;
18023;SDS011;9137;50.960;3.118;2022-08-21T00:54:10;3.75;;;1.85;;
18023;SDS011;9137;50.960;3.118;2022-08-21T00:56:39;2.65;;;1.85;;
18023;SDS011;9137;50.960;3.118;2022-08-21T00:59:06;2.78;;;1.60;;
18023;SDS011;9137;50.960;3.118;2022-08-21T01:01:34;4.50;;;1.80;;
18023;SDS011;9137;50.960;3.118;2022-08-21T01:04:01;4.03;;;1.67;;
18023;SDS011;9137;50.960;3.118;2022-08-21T01:06:29;3.25;;;1.63;;
18023;SDS011;9137;50.960;3.118;2022-08-21T01:08:56;5.25;;;1.80;;
18023;SDS011;9137;50.960;3.118;2022-08-21T01:11:23;2.40;;;1.40;;
18023;SDS011;9137;50.960;3.118;2022-08-21T01:13:51;5.32;;;1.80;;
18023;SDS011;9137;50.960;3.118;2022-08-21T01:16:20;2.35;;;1.70;;
18023;SDS011;9137;50.960;3.118;2022-08-21T01:18:48;4.40;;;1.52;;
18023;SDS011;9137;50.960;3.118;2022-08-21T01:21:18;3.42;;;1.52;;
18023;SDS011;9137;50.960;3.118;2022-08-21T01:23:49;5.10;;;2.07;;
18023;SDS011;9137;50.960;3.118;2022-08-21T01:26:22;2.35;;;1.55;;
18023;SDS011;9137;50.960;3.118;2022-08-21T01:28:52;3.80;;;2.22;;
18023;SDS011;9137;50.960;3.118;2022-08-21T01:31:23;5.90;;;1.85;;
18023;SDS011;9137;50.960;3.118;2022-08-21T01:33:52;6.63;;;2.25;;
18023;SDS011;9137;50.960;3.118;2022-08-21T01:36:21;5.43;;;1.77;;
18023;SDS011;9137;50.960;3.118;2022-08-21T01:38:49;3.80;;;1.77;;
18023;SDS011;9137;50.960;3.118;2022-08-21T01:41:16;5.28;;;2.00;;
18023;SDS011;9137;50.960;3.118;2022-08-21T01:43:43;2.17;;;1.45;;
18023;SDS011;9137;50.960;3.118;2022-08-21T01:46:11;3.97;;;1.73;;
18023;SDS011;9137;50.960;3.118;2022-08-21T01:48:38;5.68;;;2.00;;
18023;SDS011;9137;50.960;3.118;2022-08-21T01:51:06;3.42;;;1.92;;
18023;SDS011;9137;50.960;3.118;2022-08-21T01:53:35;2.90;;;1.50;;
18023;SDS011;9137;50.960;3.118;2022-08-21T01:56:05;4.40;;;1.85;;
18023;SDS011;9137;50.960;3.118;2022-08-21T01:58:34;5.10;;;1.52;;
18023;SDS011;9137;50.960;3.118;2022-08-21T02:01:01;5.47;;;1.63;;
18023;SDS011;9137;50.960;3.118;2022-08-21T02:03:29;4.30;;;2.07;;
18023;SDS011;9137;50.960;3.118;2022-08-21T02:05:56;5.55;;;1.50;;
18023;SDS011;9137;50.960;3.118;2022-08-21T02:08:23;4.57;;;1.63;;
18023;SDS011;9137;50.960;3.118;2022-08-21T02:10:51;2.70;;;1.55;;
18023;SDS011;9137;50.960;3.118;2022-08-21T02:13:18;4.50;;;1.80;;
18023;SDS011;9137;50.960;3.118;2022-08-21T02:15:45;4.38;;;1.67;;
18023;SDS011;9137;50.960;3.118;2022-08-21T02:18:12;3.75;;;2.00;;
18023;SDS011;9137;50.960;3.118;2022-08-21T02:20:40;4.17;;;1.80;;
18023;SDS011;9137;50.960;3.118;2022-08-21T02:23:10;4.83;;;2.00;;
18023;SDS011;9137;50.960;3.118;2022-08-21T02:25:37;3.28;;;1.77;;
18023;SDS011;9137;50.960;3.118;2022-08-21T02:28:07;4.68;;;1.80;;
18023;SDS011;9137;50.960;3.118;2022-08-21T02:30:37;5.10;;;1.67;;
18023;SDS011;9137;50.960;3.118;2022-08-21T02:33:06;3.53;;;1.58;;
18023;SDS011;9137;50.960;3.118;2022-08-21T02:35:34;3.45;;;1.67;;
18023;SDS011;9137;50.960;3.118;2022-08-21T02:38:03;2.70;;;1.55;;
18023;SDS011;9137;50.960;3.118;2022-08-21T02:40:34;5.13;;;1.77;;
18023;SDS011;9137;50.960;3.118;2022-08-21T02:43:04;4.43;;;1.58;;
18023;SDS011;9137;50.960;3.118;2022-08-21T02:45:33;3.40;;;1.92;;
18023;SDS011;9137;50.960;3.118;2022-08-21T02:48:02;2.90;;;1.30;;
18023;SDS011;9137;50.960;3.118;2022-08-21T02:50:31;3.33;;;1.70;;
18023;SDS011;9137;50.960;3.118;2022-08-21T02:52:59;4.95;;;1.98;;
18023;SDS011;9137;50.960;3.118;2022-08-21T02:55:28;2.72;;;1.83;;
18023;SDS011;9137;50.960;3.118;2022-08-21T02:57:56;4.65;;;1.92;;
18023;SDS011;9137;50.960;3.118;2022-08-21T03:00:25;4.93;;;1.63;;
18023;SDS011;9137;50.960;3.118;2022-08-21T03:02:55;4.00;;;2.00;;
18023;SDS011;9137;50.960;3.118;2022-08-21T03:05:23;5.83;;;2.23;;
18023;SDS011;9137;50.960;3.118;2022-08-21T03:07:51;3.25;;;2.00;;
18023;SDS011;9137;50.960;3.118;2022-08-21T03:10:19;5.00;;;1.92;;
18023;SDS011;9137;50.960;3.118;2022-08-21T03:12:47;2.80;;;1.95;;
18023;SDS011;9137;50.960;3.118;2022-08-21T03:15:15;3.53;;;1.90;;
18023;SDS011;9137;50.960;3.118;2022-08-21T03:17:44;5.50;;;1.90;;
18023;SDS011;9137;50.960;3.118;2022-08-21T03:20:14;3.08;;;2.10;;
18023;SDS011;9137;50.960;3.118;2022-08-21T03:22:42;4.47;;;2.75;;
18023;SDS011;9137;50.960;3.118;2022-08-21T03:25:09;4.63;;;2.10;;
18023;SDS011;9137;50.960;3.118;2022-08-21T03:27:36;7.07;;;2.55;;
18023;SDS011;9137;50.960;3.118;2022-08-21T03:30:04;5.72;;;2.50;;
18023;SDS011;9137;50.960;3.118;2022-08-21T03:32:33;5.13;;;2.20;;
18023;SDS011;9137;50.960;3.118;2022-08-21T03:35:00;4.93;;;2.47;;
18023;SDS011;9137;50.960;3.118;2022-08-21T03:37:29;4.40;;;2.45;;
18023;SDS011;9137;50.960;3.118;2022-08-21T03:39:56;5.07;;;2.20;;
18023;SDS011;9137;50.960;3.118;2022-08-21T03:42:23;4.50;;;2.42;;
18023;SDS011;9137;50.960;3.118;2022-08-21T03:44:50;6.57;;;2.67;;
18023;SDS011;9137;50.960;3.118;2022-08-21T03:47:17;7.18;;;3.00;;
18023;SDS011;9137;50.960;3.118;2022-08-21T03:49:43;4.75;;;2.50;;
18023;SDS011;9137;50.960;3.118;2022-08-21T03:52:10;5.85;;;2.53;;
18023;SDS011;9137;50.960;3.118;2022-08-21T03:54:39;5.57;;;2.50;;
18023;SDS011;9137;50.960;3.118;2022-08-21T03:57:08;7.40;;;2.35;;
18023;SDS011;9137;50.960;3.118;2022-08-21T03:59:35;4.57;;;2.08;;
18023;SDS011;9137;50.960;3.118;2022-08-21T04:02:04;5.47;;;2.47;;
18023;SDS011;9137;50.960;3.118;2022-08-21T04:04:33;5.28;;;2.00;;
18023;SDS011;9137;50.960;3.118;2022-08-21T04:07:00;3.47;;;2.30;;
18023;SDS011;9137;50.960;3.118;2022-08-21T04:09:27;3.92;;;2.40;;
18023;SDS011;9137;50.960;3.118;2022-08-21T04:11:56;3.72;;;2.25;;
18023;SDS011;9137;50.960;3.118;2022-08-21T04:14:24;5.70;;;2.50;;
18023;SDS011;9137;50.960;3.118;2022-08-21T04:16:51;4.32;;;2.33;;
18023;SDS011;9137;50.960;3.118;2022-08-21T04:19:18;2.95;;;2.08;;
18023;SDS011;9137;50.960;3.118;2022-08-21T04:21:45;4.17;;;2.30;;
18023;SDS011;9137;50.960;3.118;2022-08-21T04:24:12;6.03;;;2.50;;
18023;SDS011;9137;50.960;3.118;2022-08-21T04:26:39;6.45;;;2.42;;
18023;SDS011;9137;50.960;3.118;2022-08-21T04:29:07;4.68;;;2.45;;
18023;SDS011;9137;50.960;3.118;2022-08-21T04:31:34;3.53;;;1.90;;
18023;SDS011;9137;50.960;3.118;2022-08-21T04:34:03;4.50;;;2.40;;
18023;SDS011;9137;50.960;3.118;2022-08-21T04:36:30;5.13;;;2.20;;
18023;SDS011;9137;50.960;3.118;2022-08-21T04:38:57;4.68;;;2.53;;
18023;SDS011;9137;50.960;3.118;2022-08-21T04:41:24;4.43;;;2.30;;
18023;SDS011;9137;50.960;3.118;2022-08-21T04:43:51;4.13;;;2.30;;
18023;SDS011;9137;50.960;3.118;2022-08-21T04:46:21;4.10;;;2.15;;
18023;SDS011;9137;50.960;3.118;2022-08-21T04:48:49;5.32;;;2.13;;
18023;SDS011;9137;50.960;3.118;2022-08-21T04:51:16;4.45;;;2.15;;
18023;SDS011;9137;50.960;3.118;2022-08-21T04:53:49;4.03;;;2.50;;
18023;SDS011;9137;50.960;3.118;2022-08-21T04:56:20;5.70;;;2.47;;
18023;SDS011;9137;50.960;3.118;2022-08-21T04:58:51;4.97;;;2.38;;
18023;SDS011;9137;50.960;3.118;2022-08-21T05:01:23;6.63;;;2.38;;
18023;SDS011;9137;50.960;3.118;2022-08-21T05:03:52;4.38;;;2.67;;
18023;SDS011;9137;50.960;3.118;2022-08-21T05:06:22;6.07;;;2.38;;
18023;SDS011;9137;50.960;3.118;2022-08-21T05:08:50;5.05;;;2.25;;
18023;SDS011;9137;50.960;3.118;2022-08-21T05:11:19;3.83;;;2.40;;
18023;SDS011;9137;50.960;3.118;2022-08-21T05:13:47;5.57;;;2.67;;
18023;SDS011;9137;50.960;3.118;2022-08-21T05:16:14;4.47;;;2.45;;
18023;SDS011;9137;50.960;3.118;2022-08-21T05:18:42;3.80;;;2.58;;
18023;SDS011;9137;50.960;3.118;2022-08-21T05:21:09;4.72;;;2.75;;
18023;SDS011;9137;50.960;3.118;2022-08-21T05:23:36;5.15;;;2.67;;
18023;SDS011;9137;50.960;3.118;2022-08-21T05:26:03;5.63;;;2.83;;
18023;SDS011;9137;50.960;3.118;2022-08-21T05:28:30;5.22;;;2.88;;
18023;SDS011;9137;50.960;3.118;2022-08-21T05:30:58;4.78;;;2.75;;
18023;SDS011;9137;50.960;3.118;2022-08-21T05:33:25;5.05;;;2.60;;
18023;SDS011;9137;50.960;3.118;2022-08-21T05:35:53;5.33;;;2.30;;
18023;SDS011;9137;50.960;3.118;2022-08-21T05:38:21;5.93;;;2.45;;
18023;SDS011;9137;50.960;3.118;2022-08-21T05:40:48;4.90;;;2.63;;
18023;SDS011;9137;50.960;3.118;2022-08-21T05:43:15;5.80;;;2.78;;
18023;SDS011;9137;50.960;3.118;2022-08-21T05:45:42;4.87;;;2.70;;
18023;SDS011;9137;50.960;3.118;2022-08-21T05:48:11;6.43;;;2.83;;
18023;SDS011;9137;50.960;3.118;2022-08-21T05:50:39;7.63;;;2.90;;
18023;SDS011;9137;50.960;3.118;2022-08-21T05:53:07;5.35;;;2.42;;
18023;SDS011;9137;50.960;3.118;2022-08-21T05:55:36;6.47;;;2.80;;
18023;SDS011;9137;50.960;3.118;2022-08-21T05:58:03;4.25;;;2.50;;
18023;SDS011;9137;50.960;3.118;2022-08-21T06:00:31;7.18;;;2.80;;
18023;SDS011;9137;50.960;3.118;2022-08-21T06:02:58;5.50;;;2.55;;
18023;SDS011;9137;50.960;3.118;2022-08-21T06:05:25;6.38;;;2.40;;
18023;SDS011;9137;50.960;3.118;2022-08-21T06:07:52;6.57;;;2.95;;
18023;SDS011;9137;50.960;3.118;2022-08-21T06:10:21;8.40;;;2.80;;
18023;SDS011;9137;50.960;3.118;2022-08-21T06:12:52;5.40;;;2.50;;
18023;SDS011;9137;50.960;3.118;2022-08-21T06:15:20;5.80;;;2.72;;
18023;SDS011;9137;50.960;3.118;2022-08-21T06:17:47;6.35;;;2.55;;
18023;SDS011;9137;50.960;3.118;2022-08-21T06:20:13;6.97;;;2.63;;
18023;SDS011;9137;50.960;3.118;2022-08-21T06:22:40;5.68;;;2.70;;
18023;SDS011;9137;50.960;3.118;2022-08-21T06:25:07;5.05;;;2.60;;
18023;SDS011;9137;50.960;3.118;2022-08-21T06:27:36;6.63;;;2.58;;
18023;SDS011;9137;50.960;3.118;2022-08-21T06:30:04;8.15;;;2.85;;
18023;SDS011;9137;50.960;3.118;2022-08-21T06:32:32;4.57;;;2.65;;
18023;SDS011;9137;50.960;3.118;2022-08-21T06:34:59;8.87;;;2.80;;
18023;SDS011;9137;50.960;3.118;2022-08-21T06:37:26;6.72;;;2.50;;
18023;SDS011;9137;50.960;3.118;2022-08-21T06:39:53;6.27;;;2.63;;
18023;SDS011;9137;50.960;3.118;2022-08-21T06:42:19;5.63;;;2.70;;
18023;SDS011;9137;50.960;3.118;2022-08-21T06:44:48;6.57;;;2.90;;
18023;SDS011;9137;50.960;3.118;2022-08-21T06:47:15;5.47;;;2.65;;
18023;SDS011;9137;50.960;3.118;2022-08-21T06:49:41;4.28;;;2.15;;
18023;SDS011;9137;50.960;3.118;2022-08-21T06:52:09;5.88;;;2.58;;
18023;SDS011;9137;50.960;3.118;2022-08-21T06:54:37;6.78;;;3.00;;
18023;SDS011;9137;50.960;3.118;2022-08-21T06:57:04;8.67;;;3.40;;
18023;SDS011;9137;50.960;3.118;2022-08-21T06:59:31;8.70;;;3.45;;
18023;SDS011;9137;50.960;3.118;2022-08-21T07:02:00;6.05;;;3.17;;
18023;SDS011;9137;50.960;3.118;2022-08-21T07:04:27;8.43;;;3.72;;
18023;SDS011;9137;50.960;3.118;2022-08-21T07:06:54;6.70;;;3.10;;
18023;SDS011;9137;50.960;3.118;2022-08-21T07:09:21;7.80;;;3.00;;
18023;SDS011;9137;50.960;3.118;2022-08-21T07:11:49;8.13;;;3.53;;
18023;SDS011;9137;50.960;3.118;2022-08-21T07:14:18;7.57;;;3.13;;
18023;SDS011;9137;50.960;3.118;2022-08-21T07:16:45;7.95;;;3.13;;
18023;SDS011;9137;50.960;3.118;2022-08-21T07:19:13;7.72;;;3.20;;
18023;SDS011;9137;50.960;3.118;2022-08-21T07:21:40;6.60;;;3.08;;
18023;SDS011;9137;50.960;3.118;2022-08-21T07:24:07;6.85;;;3.10;;
18023;SDS011;9137;50.960;3.118;2022-08-21T07:26:34;5.50;;;2.80;;
18023;SDS011;9137;50.960;3.118;2022-08-21T07:29:01;7.40;;;3.35;;
18023;SDS011;9137;50.960;3.118;2022-08-21T07:31:28;8.07;;;2.95;;
18023;SDS011;9137;50.960;3.118;2022-08-21T07:33:55;5.03;;;2.80;;
18023;SDS011;9137;50.960;3.118;2022-08-21T07:36:23;6.50;;;2.83;;
18023;SDS011;9137;50.960;3.118;2022-08-21T07:38:50;6.22;;;3.13;;
18023;SDS011;9137;50.960;3.118;2022-08-21T07:41:18;5.85;;;2.72;;
18023;SDS011;9137;50.960;3.118;2022-08-21T07:43:47;9.23;;;3.10;;
18023;SDS011;9137;50.960;3.118;2022-08-21T07:46:15;7.22;;;2.72;;
18023;SDS011;9137;50.960;3.118;2022-08-21T07:48:42;6.57;;;2.53;;
18023;SDS011;9137;50.960;3.118;2022-08-21T07:51:10;8.68;;;3.00;;
18023;SDS011;9137;50.960;3.118;2022-08-21T07:53:40;8.45;;;3.30;;
18023;SDS011;9137;50.960;3.118;2022-08-21T07:56:08;7.68;;;3.38;;
18023;SDS011;9137;50.960;3.118;2022-08-21T07:58:36;6.00;;;2.83;;
18023;SDS011;9137;50.960;3.118;2022-08-21T08:01:03;7.68;;;2.72;;
18023;SDS011;9137;50.960;3.118;2022-08-21T08:03:31;12.00;;;2.67;;
18023;SDS011;9137;50.960;3.118;2022-08-21T08:05:58;9.27;;;3.33;;
18023;SDS011;9137;50.960;3.118;2022-08-21T08:08:25;7.13;;;2.80;;
18023;SDS011;9137;50.960;3.118;2022-08-21T08:10:54;6.85;;;2.80;;
18023;SDS011;9137;50.960;3.118;2022-08-21T08:13:23;5.25;;;2.45;;
18023;SDS011;9137;50.960;3.118;2022-08-21T08:15:51;6.18;;;2.30;;
18023;SDS011;9137;50.960;3.118;2022-08-21T08:18:18;5.90;;;3.13;;
18023;SDS011;9137;50.960;3.118;2022-08-21T08:20:45;8.02;;;2.92;;
18023;SDS011;9137;50.960;3.118;2022-08-21T08:23:12;7.38;;;2.40;;
18023;SDS011;9137;50.960;3.118;2022-08-21T08:25:40;5.82;;;2.50;;
18023;SDS011;9137;50.960;3.118;2022-08-21T08:28:08;7.22;;;2.38;;
18023;SDS011;9137;50.960;3.118;2022-08-21T08:30:35;6.22;;;2.47;;
18023;SDS011;9137;50.960;3.118;2022-08-21T08:33:02;6.53;;;2.33;;
18023;SDS011;9137;50.960;3.118;2022-08-21T08:35:29;6.03;;;2.60;;
18023;SDS011;9137;50.960;3.118;2022-08-21T08:37:56;6.95;;;2.50;;
18023;SDS011;9137;50.960;3.118;2022-08-21T08:40:31;6.93;;;2.70;;
18023;SDS011;9137;50.960;3.118;2022-08-21T08:43:05;4.30;;;2.47;;
18023;SDS011;9137;50.960;3.118;2022-08-21T08:45:34;7.03;;;2.20;;
18023;SDS011;9137;50.960;3.118;2022-08-21T08:48:06;4.88;;;2.15;;
18023;SDS011;9137;50.960;3.118;2022-08-21T08:50:38;5.35;;;1.90;;
18023;SDS011;9137;50.960;3.118;2022-08-21T08:53:10;5.80;;;1.92;;
18023;SDS011;9137;50.960;3.118;2022-08-21T08:55:42;5.93;;;2.00;;
18023;SDS011;9137;50.960;3.118;2022-08-21T08:58:11;6.78;;;2.08;;
18023;SDS011;9137;50.960;3.118;2022-08-21T09:00:44;6.00;;;2.37;;
18023;SDS011;9137;50.960;3.118;2022-08-21T09:03:15;5.30;;;2.33;;
18023;SDS011;9137;50.960;3.118;2022-08-21T09:05:42;6.57;;;2.20;;
18023;SDS011;9137;50.960;3.118;2022-08-21T09:08:28;5.75;;;1.77;;
18023;SDS011;9137;50.960;3.118;2022-08-21T09:11:08;4.80;;;2.03;;
18023;SDS011;9137;50.960;3.118;2022-08-21T09:13:43;6.88;;;2.15;;
18023;SDS011;9137;50.960;3.118;2022-08-21T09:16:22;6.73;;;2.40;;
18023;SDS011;9137;50.960;3.118;2022-08-21T09:18:59;4.05;;;1.40;;
18023;SDS011;9137;50.960;3.118;2022-08-21T09:21:36;7.18;;;1.70;;
18023;SDS011;9137;50.960;3.118;2022-08-21T09:24:18;5.57;;;1.42;;
18023;SDS011;9137;50.960;3.118;2022-08-21T09:26:57;6.00;;;1.90;;
18023;SDS011;9137;50.960;3.118;2022-08-21T09:29:35;7.28;;;2.13;;
18023;SDS011;9137;50.960;3.118;2022-08-21T09:32:11;3.17;;;1.40;;
18023;SDS011;9137;50.960;3.118;2022-08-21T09:34:54;4.90;;;1.55;;
18023;SDS011;9137;50.960;3.118;2022-08-21T09:37:22;6.05;;;1.60;;
18023;SDS011;9137;50.960;3.118;2022-08-21T09:39:50;5.05;;;1.73;;
18023;SDS011;9137;50.960;3.118;2022-08-21T09:42:21;6.20;;;1.50;;
18023;SDS011;9137;50.960;3.118;2022-08-21T09:45:00;7.47;;;2.10;;
18023;SDS011;9137;50.960;3.118;2022-08-21T09:47:34;4.20;;;1.77;;
18023;SDS011;9137;50.960;3.118;2022-08-21T09:50:09;4.68;;;1.90;;
18023;SDS011;9137;50.960;3.118;2022-08-21T09:52:45;6.40;;;2.42;;
18023;SDS011;9137;50.960;3.118;2022-08-21T09:55:16;5.30;;;1.53;;
18023;SDS011;9137;50.960;3.118;2022-08-21T09:58:05;5.32;;;1.92;;
18023;SDS011;9137;50.960;3.118;2022-08-21T10:00:33;7.10;;;1.73;;
18023;SDS011;9137;50.960;3.118;2022-08-21T10:03:09;5.20;;;1.60;;
18023;SDS011;9137;50.960;3.118;2022-08-21T10:05:39;9.13;;;2.00;;
18023;SDS011;9137;50.960;3.118;2022-08-21T10:08:15;4.50;;;1.70;;
18023;SDS011;9137;50.960;3.118;2022-08-21T10:10:43;7.10;;;1.80;;
18023;SDS011;9137;50.960;3.118;2022-08-21T10:13:12;7.40;;;1.60;;
18023;SDS011;9137;50.960;3.118;2022-08-21T10:15:46;5.47;;;2.20;;
18023;SDS011;9137;50.960;3.118;2022-08-21T10:18:21;6.78;;;2.03;;
18023;SDS011;9137;50.960;3.118;2022-08-21T10:20:56;6.00;;;1.73;;
18023;SDS011;9137;50.960;3.118;2022-08-21T10:23:35;5.10;;;2.20;;
18023;SDS011;9137;50.960;3.118;2022-08-21T10:26:11;7.47;;;2.00;;
18023;SDS011;9137;50.960;3.118;2022-08-21T10:28:47;6.65;;;2.03;;
18023;SDS011;9137;50.960;3.118;2022-08-21T10:31:29;8.38;;;1.90;;
18023;SDS011;9137;50.960;3.118;2022-08-21T10:34:13;6.13;;;1.73;;
18023;SDS011;9137;50.960;3.118;2022-08-21T10:36:59;5.43;;;1.80;;
18023;SDS011;9137;50.960;3.118;2022-08-21T10:39:34;5.95;;;1.80;;
18023;SDS011;9137;50.960;3.118;2022-08-21T10:45:09;4.20;;;1.70;;
18023;SDS011;9137;50.960;3.118;2022-08-21T10:47:46;5.22;;;1.63;;
18023;SDS011;9137;50.960;3.118;2022-08-21T10:50:22;4.40;;;1.60;;
18023;SDS011;9137;50.960;3.118;2022-08-21T10:53:09;6.47;;;1.70;;
18023;SDS011;9137;50.960;3.118;2022-08-21T10:55:43;6.00;;;2.00;;
18023;SDS011;9137;50.960;3.118;2022-08-21T10:58:19;4.80;;;2.10;;
18023;SDS011;9137;50.960;3.118;2022-08-21T11:00:53;6.13;;;2.00;;
18023;SDS011;9137;50.960;3.118;2022-08-21T11:03:29;6.23;;;1.77;;
18023;SDS011;9137;50.960;3.118;2022-08-21T11:06:02;8.02;;;2.25;;
18023;SDS011;9137;50.960;3.118;2022-08-21T11:08:35;5.47;;;2.50;;
18023;SDS011;9137;50.960;3.118;2022-08-21T11:11:07;5.13;;;1.50;;
18023;SDS011;9137;50.960;3.118;2022-08-21T11:13:39;3.40;;;1.40;;
18023;SDS011;9137;50.960;3.118;2022-08-21T11:16:10;6.10;;;1.77;;
18023;SDS011;9137;50.960;3.118;2022-08-21T11:18:45;4.63;;;1.42;;
18023;SDS011;9137;50.960;3.118;2022-08-21T11:21:25;4.60;;;1.58;;
18023;SDS011;9137;50.960;3.118;2022-08-21T11:23:59;5.53;;;1.58;;
18023;SDS011;9137;50.960;3.118;2022-08-21T11:26:39;4.43;;;1.60;;
18023;SDS011;9137;50.960;3.118;2022-08-21T11:29:12;5.20;;;2.03;;
18023;SDS011;9137;50.960;3.118;2022-08-21T11:31:52;5.47;;;1.70;;
18023;SDS011;9137;50.960;3.118;2022-08-21T11:34:34;5.93;;;1.80;;
18023;SDS011;9137;50.960;3.118;2022-08-21T11:37:14;4.75;;;1.65;;
18023;SDS011;9137;50.960;3.118;2022-08-21T11:39:51;5.73;;;1.93;;
18023;SDS011;9137;50.960;3.118;2022-08-21T11:42:27;4.93;;;1.50;;
18023;SDS011;9137;50.960;3.118;2022-08-21T11:45:03;6.63;;;1.60;;
18023;SDS011;9137;50.960;3.118;2022-08-21T11:47:46;4.93;;;1.50;;
18023;SDS011;9137;50.960;3.118;2022-08-21T11:50:21;6.82;;;1.85;;
18023;SDS011;9137;50.960;3.118;2022-08-21T11:52:55;5.43;;;1.67;;
18023;SDS011;9137;50.960;3.118;2022-08-21T11:55:27;6.77;;;1.83;;
18023;SDS011;9137;50.960;3.118;2022-08-21T11:57:58;6.30;;;1.75;;
18023;SDS011;9137;50.960;3.118;2022-08-21T12:00:29;6.80;;;2.00;;
18023;SDS011;9137;50.960;3.118;2022-08-21T12:03:05;6.07;;;1.55;;
18023;SDS011;9137;50.960;3.118;2022-08-21T12:05:36;4.83;;;1.73;;
18023;SDS011;9137;50.960;3.118;2022-08-21T12:08:10;3.85;;;1.60;;
18023;SDS011;9137;50.960;3.118;2022-08-21T12:10:40;4.30;;;1.52;;
18023;SDS011;9137;50.960;3.118;2022-08-21T12:13:10;4.50;;;1.40;;
18023;SDS011;9137;50.960;3.118;2022-08-21T12:15:39;6.78;;;1.65;;
18023;SDS011;9137;50.960;3.118;2022-08-21T12:18:20;9.63;;;2.20;;
18023;SDS011;9137;50.960;3.118;2022-08-21T12:20:59;5.07;;;1.60;;
18023;SDS011;9137;50.960;3.118;2022-08-21T12:23:32;5.13;;;1.80;;
18023;SDS011;9137;50.960;3.118;2022-08-21T12:26:16;4.72;;;1.88;;
18023;SDS011;9137;50.960;3.118;2022-08-21T12:28:50;5.03;;;1.53;;
18023;SDS011;9137;50.960;3.118;2022-08-21T12:31:18;6.20;;;1.55;;
18023;SDS011;9137;50.960;3.118;2022-08-21T12:33:50;7.35;;;2.10;;
18023;SDS011;9137;50.960;3.118;2022-08-21T12:36:23;4.43;;;1.25;;
18023;SDS011;9137;50.960;3.118;2022-08-21T12:38:54;4.97;;;2.00;;
18023;SDS011;9137;50.960;3.118;2022-08-21T12:41:25;5.97;;;1.67;;
18023;SDS011;9137;50.960;3.118;2022-08-21T12:43:57;6.10;;;2.10;;
18023;SDS011;9137;50.960;3.118;2022-08-21T12:46:27;5.55;;;1.83;;
18023;SDS011;9137;50.960;3.118;2022-08-21T12:48:59;5.43;;;1.83;;
18023;SDS011;9137;50.960;3.118;2022-08-21T12:51:32;5.10;;;1.50;;
18023;SDS011;9137;50.960;3.118;2022-08-21T12:54:10;5.55;;;1.90;;
18023;SDS011;9137;50.960;3.118;2022-08-21T12:56:55;5.27;;;1.67;;
18023;SDS011;9137;50.960;3.118;2022-08-21T12:59:23;5.38;;;1.80;;
18023;SDS011;9137;50.960;3.118;2022-08-21T13:01:50;5.10;;;1.73;;
18023;SDS011;9137;50.960;3.118;2022-08-21T13:04:21;5.60;;;1.75;;
18023;SDS011;9137;50.960;3.118;2022-08-21T13:06:53;4.07;;;2.03;;
18023;SDS011;9137;50.960;3.118;2022-08-21T13:09:24;4.82;;;1.48;;
18023;SDS011;9137;50.960;3.118;2022-08-21T13:11:54;6.40;;;1.90;;
18023;SDS011;9137;50.960;3.118;2022-08-21T13:14:23;6.15;;;1.63;;
18023;SDS011;9137;50.960;3.118;2022-08-21T13:16:54;4.07;;;1.55;;
18023;SDS011;9137;50.960;3.118;2022-08-21T13:19:21;3.33;;;1.43;;
18023;SDS011;9137;50.960;3.118;2022-08-21T13:21:49;6.20;;;1.70;;
18023;SDS011;9137;50.960;3.118;2022-08-21T13:24:18;5.18;;;1.73;;
18023;SDS011;9137;50.960;3.118;2022-08-21T13:26:48;3.95;;;1.55;;
18023;SDS011;9137;50.960;3.118;2022-08-21T13:29:20;4.38;;;1.85;;
18023;SDS011;9137;50.960;3.118;2022-08-21T13:31:49;4.95;;;1.60;;
18023;SDS011;9137;50.960;3.118;2022-08-21T13:34:18;5.13;;;1.85;;
18023;SDS011;9137;50.960;3.118;2022-08-21T13:36:46;5.32;;;1.80;;
18023;SDS011;9137;50.960;3.118;2022-08-21T13:39:15;6.03;;;2.40;;
18023;SDS011;9137;50.960;3.118;2022-08-21T13:41:46;6.45;;;1.75;;
18023;SDS011;9137;50.960;3.118;2022-08-21T13:44:17;5.95;;;1.95;;
18023;SDS011;9137;50.960;3.118;2022-08-21T13:46:46;4.35;;;1.90;;
18023;SDS011;9137;50.960;3.118;2022-08-21T13:49:16;4.40;;;1.60;;
18023;SDS011;9137;50.960;3.118;2022-08-21T13:51:45;4.63;;;1.70;;
18023;SDS011;9137;50.960;3.118;2022-08-21T13:54:16;6.28;;;1.98;;
18023;SDS011;9137;50.960;3.118;2022-08-21T13:56:49;4.30;;;1.70;;
18023;SDS011;9137;50.960;3.118;2022-08-21T13:59:26;6.20;;;2.00;;
18023;SDS011;9137;50.960;3.118;2022-08-21T14:01:55;4.57;;;1.60;;
18023;SDS011;9137;50.960;3.118;2022-08-21T14:04:26;6.20;;;1.85;;
18023;SDS011;9137;50.960;3.118;2022-08-21T14:06:58;6.30;;;1.73;;
18023;SDS011;9137;50.960;3.118;2022-08-21T14:09:26;5.05;;;1.75;;
18023;SDS011;9137;50.960;3.118;2022-08-21T14:11:59;5.63;;;1.85;;
18023;SDS011;9137;50.960;3.118;2022-08-21T14:14:29;5.00;;;1.70;;
18023;SDS011;9137;50.960;3.118;2022-08-21T14:17:00;5.57;;;1.60;;
18023;SDS011;9137;50.960;3.118;2022-08-21T14:19:36;4.75;;;1.70;;
18023;SDS011;9137;50.960;3.118;2022-08-21T14:25:02;5.63;;;1.80;;
18023;SDS011;9137;50.960;3.118;2022-08-21T14:27:32;4.95;;;1.52;;
18023;SDS011;9137;50.960;3.118;2022-08-21T14:30:01;5.28;;;2.03;;
18023;SDS011;9137;50.960;3.118;2022-08-21T14:32:38;5.53;;;1.60;;
18023;SDS011;9137;50.960;3.118;2022-08-21T14:35:06;6.93;;;1.70;;
18023;SDS011;9137;50.960;3.118;2022-08-21T14:37:34;4.13;;;1.50;;
18023;SDS011;9137;50.960;3.118;2022-08-21T14:40:01;5.57;;;1.75;;
18023;SDS011;9137;50.960;3.118;2022-08-21T14:42:29;5.90;;;2.28;;
18023;SDS011;9137;50.960;3.118;2022-08-21T14:45:00;4.65;;;1.45;;
18023;SDS011;9137;50.960;3.118;2022-08-21T14:47:31;3.87;;;1.47;;
18023;SDS011;9137;50.960;3.118;2022-08-21T14:49:58;3.92;;;1.80;;
18023;SDS011;9137;50.960;3.118;2022-08-21T14:52:25;6.93;;;1.83;;
18023;SDS011;9137;50.960;3.118;2022-08-21T14:54:52;4.90;;;1.93;;
18023;SDS011;9137;50.960;3.118;2022-08-21T14:57:18;5.32;;;1.80;;
18023;SDS011;9137;50.960;3.118;2022-08-21T14:59:45;4.10;;;1.80;;
18023;SDS011;9137;50.960;3.118;2022-08-21T15:02:14;3.58;;;1.58;;
18023;SDS011;9137;50.960;3.118;2022-08-21T15:04:41;6.57;;;2.17;;
18023;SDS011;9137;50.960;3.118;2022-08-21T15:07:08;6.13;;;1.73;;
18023;SDS011;9137;50.960;3.118;2022-08-21T15:09:35;3.70;;;1.80;;
18023;SDS011;9137;50.960;3.118;2022-08-21T15:12:02;4.95;;;1.95;;
18023;SDS011;9137;50.960;3.118;2022-08-21T15:14:30;4.75;;;1.90;;
18023;SDS011;9137;50.960;3.118;2022-08-21T15:17:00;5.13;;;1.90;;
18023;SDS011;9137;50.960;3.118;2022-08-21T15:19:30;7.32;;;2.08;;
18023;SDS011;9137;50.960;3.118;2022-08-21T15:21:57;4.28;;;1.63;;